Time;durP1;ratioP1;P1;durP2;ratioP2;P2;SDS_P1;SDS_P2;PMS_P1;PMS_P2;Temp;Humidity;BMP_temperature;BMP_pressure;BME280_temperature;BME280_humidity;BME280_pressure;Samples;Min_cycle;Max_cycle;Signal;HPM_P1;HPM_P2
2021/10/03 00:00:31;;;;;;;6.40;5.22;;;17.20;1.00;;;;;;5047849;28;20078;-70
2021/10/03 00:03:02;;;;;;;6.65;5.15;;;17.20;1.00;;;;;;5042797;28;20041;-69
2021/10/03 00:05:33;;;;;;;7.32;5.35;;;17.20;1.00;;;;;;5051986;28;20495;-70
2021/10/03 00:08:05;;;;;;;5.60;4.88;;;17.20;1.00;;;;;;5048501;28;20071;-69
2021/10/03 00:10:35;;;;;;;8.83;5.27;;;17.30;1.00;;;;;;5058997;28;20049;-68
2021/10/03 00:13:06;;;;;;;7.25;5.00;;;17.20;1.00;;;;;;5036450;28;20462;-70
2021/10/03 00:15:36;;;;;;;7.55;5.35;;;17.10;1.00;;;;;;5054895;28;20484;-70
2021/10/03 00:18:06;;;;;;;7.35;4.72;;;17.10;1.00;;;;;;5077228;28;22020;-69
2021/10/03 00:20:39;;;;;;;9.18;5.65;;;17.20;1.00;;;;;;5073760;28;20704;-70
2021/10/03 00:23:12;;;;;;;6.27;5.20;;;17.20;1.00;;;;;;5068357;28;20072;-69
2021/10/03 00:25:41;;;;;;;7.03;5.05;;;17.20;1.00;;;;;;5053060;28;20051;-70
2021/10/03 00:28:14;;;;;;;6.65;5.55;;;17.20;1.00;;;;;;5076487;28;20058;-70
2021/10/03 00:30:45;;;;;;;9.85;6.18;;;17.20;1.00;;;;;;5075540;28;20068;-71
2021/10/03 00:33:13;;;;;;;8.07;5.25;;;17.20;1.00;;;;;;5068023;28;20044;-70
2021/10/03 00:35:45;;;;;;;6.80;5.28;;;17.10;1.00;;;;;;5071107;28;20109;-68
2021/10/03 00:38:15;;;;;;;7.90;5.53;;;17.10;1.00;;;;;;5070441;28;20047;-70
2021/10/03 00:40:43;;;;;;;7.63;5.47;;;17.10;1.00;;;;;;5074578;28;20043;-70
2021/10/03 00:43:13;;;;;;;9.40;5.85;;;17.10;1.00;;;;;;5079505;28;20068;-69
2021/10/03 00:45:41;;;;;;;7.15;5.10;;;17.00;1.00;;;;;;5072223;28;20052;-70
2021/10/03 00:48:12;;;;;;;8.75;5.22;;;17.00;1.00;;;;;;5077355;28;20093;-71
2021/10/03 00:50:42;;;;;;;11.13;6.78;;;17.00;1.00;;;;;;5077412;28;20574;-70
2021/10/03 00:53:12;;;;;;;7.72;5.18;;;17.00;1.00;;;;;;5070700;28;20041;-70
2021/10/03 00:55:43;;;;;;;7.05;4.70;;;17.10;1.00;;;;;;5077184;28;20054;-69
2021/10/03 00:58:14;;;;;;;5.50;4.45;;;17.10;1.00;;;;;;5078920;28;20052;-70
2021/10/03 01:00:43;;;;;;;5.75;4.20;;;17.10;1.00;;;;;;5076281;28;20037;-70
2021/10/03 01:03:15;;;;;;;5.53;4.07;;;17.20;1.00;;;;;;5074192;28;20119;-70
2021/10/03 01:05:44;;;;;;;7.40;4.25;;;17.20;1.00;;;;;;5073352;28;20560;-69
2021/10/03 01:08:13;;;;;;;5.78;3.80;;;17.30;1.00;;;;;;5078373;28;20047;-69
2021/10/03 01:10:42;;;;;;;8.00;4.15;;;17.30;1.00;;;;;;5077975;28;20050;-70
2021/10/03 01:13:12;;;;;;;4.80;4.00;;;17.40;1.00;;;;;;5079600;28;20115;-70
2021/10/03 01:15:44;;;;;;;7.15;4.05;;;17.40;1.00;;;;;;5071811;28;20310;-70
2021/10/03 01:18:14;;;;;;;8.15;3.95;;;17.30;1.00;;;;;;5063194;28;20090;-70
2021/10/03 01:20:43;;;;;;;6.38;4.15;;;17.30;1.00;;;;;;5080156;28;20380;-71
2021/10/03 01:23:13;;;;;;;5.65;4.32;;;17.40;1.00;;;;;;5056894;28;20045;-71
2021/10/03 01:25:43;;;;;;;6.63;4.07;;;17.40;1.00;;;;;;5071987;28;20163;-70
2021/10/03 01:28:12;;;;;;;5.05;3.90;;;17.40;1.00;;;;;;5073925;28;20043;-70
2021/10/03 01:30:45;;;;;;;7.05;4.57;;;17.30;1.00;;;;;;5076318;28;20108;-70
2021/10/03 01:33:13;;;;;;;5.43;4.47;;;17.30;1.00;;;;;;5071601;28;20078;-70
2021/10/03 01:35:46;;;;;;;6.50;4.57;;;17.30;1.00;;;;;;5071674;28;20082;-70
2021/10/03 01:38:15;;;;;;;8.70;5.05;;;17.40;1.00;;;;;;5073489;28;20059;-69
2021/10/03 01:40:44;;;;;;;6.45;4.57;;;17.40;1.00;;;;;;5075224;28;20565;-70
2021/10/03 01:43:13;;;;;;;6.45;4.10;;;17.30;1.00;;;;;;5072212;28;20067;-70
2021/10/03 01:45:48;;;;;;;4.97;3.90;;;17.30;1.00;;;;;;5069165;28;20037;-70
2021/10/03 01:48:36;;;;;;;5.65;4.13;;;17.30;1.00;;;;;;5075926;28;20040;-70
2021/10/03 01:51:07;;;;;;;5.40;4.53;;;17.30;1.00;;;;;;5076616;28;20054;-70
2021/10/03 01:53:43;;;;;;;5.22;3.72;;;17.20;1.00;;;;;;5074891;28;20043;-70
2021/10/03 01:56:13;;;;;;;8.02;3.42;;;17.20;1.00;;;;;;5068554;28;20058;-70
2021/10/03 01:58:47;;;;;;;6.05;4.10;;;17.10;1.00;;;;;;5074921;28;20074;-70
2021/10/03 02:01:20;;;;;;;5.47;4.28;;;17.10;1.00;;;;;;5077360;28;20098;-69
2021/10/03 02:03:49;;;;;;;7.63;3.92;;;17.10;1.00;;;;;;5076834;28;20471;-69
2021/10/03 02:06:22;;;;;;;5.55;4.18;;;17.00;1.00;;;;;;5070959;28;20036;-69
2021/10/03 02:08:52;;;;;;;7.22;4.75;;;17.00;1.00;;;;;;5076469;28;20216;-70
2021/10/03 02:11:21;;;;;;;6.60;4.65;;;17.00;1.00;;;;;;5074090;28;20127;-70
2021/10/03 02:13:50;;;;;;;8.02;5.18;;;16.90;1.00;;;;;;5075802;28;20514;-70
2021/10/03 02:16:18;;;;;;;7.55;5.30;;;16.80;1.00;;;;;;5074870;28;20141;-70
2021/10/03 02:18:48;;;;;;;8.00;5.63;;;16.80;1.00;;;;;;5078147;28;20098;-70
2021/10/03 02:21:21;;;;;;;7.35;5.60;;;16.70;1.00;;;;;;5074823;28;20059;-70
2021/10/03 02:23:51;;;;;;;5.97;5.05;;;16.70;1.00;;;;;;5070410;28;20123;-70
2021/10/03 02:26:23;;;;;;;7.05;4.65;;;16.70;1.00;;;;;;5069540;28;20044;-70
2021/10/03 02:28:52;;;;;;;7.10;4.70;;;16.70;1.00;;;;;;5047914;28;20422;-69
2021/10/03 02:31:23;;;;;;;5.55;4.68;;;16.70;1.00;;;;;;5074946;28;20044;-70
2021/10/03 02:33:53;;;;;;;6.00;4.90;;;16.70;1.00;;;;;;5075361;28;20166;-71
2021/10/03 02:36:23;;;;;;;7.13;5.10;;;16.80;1.00;;;;;;5070928;28;20048;-70
2021/10/03 02:38:59;;;;;;;8.18;5.00;;;16.70;1.00;;;;;;5073692;28;20091;-70
2021/10/03 02:41:29;;;;;;;6.57;4.95;;;16.70;1.00;;;;;;5077321;28;20040;-70
2021/10/03 02:44:03;;;;;;;6.45;4.28;;;16.60;1.00;;;;;;5069829;28;20033;-70
2021/10/03 02:46:37;;;;;;;8.88;4.55;;;16.70;1.00;;;;;;5074559;28;20036;-69
2021/10/03 02:49:08;;;;;;;4.55;3.95;;;16.70;1.00;;;;;;5074384;28;20520;-70
2021/10/03 02:51:36;;;;;;;7.60;4.53;;;16.70;1.00;;;;;;5073662;28;20098;-69
2021/10/03 02:54:08;;;;;;;5.22;3.83;;;16.70;1.00;;;;;;5072771;28;20114;-70
2021/10/03 02:56:38;;;;;;;5.75;4.20;;;16.70;1.00;;;;;;5071091;28;20040;-70
2021/10/03 02:59:08;;;;;;;5.53;3.85;;;16.80;1.00;;;;;;5072869;28;20191;-70
2021/10/03 03:01:36;;;;;;;5.28;3.85;;;16.90;1.00;;;;;;5072775;28;20466;-69
2021/10/03 03:04:05;;;;;;;5.55;3.80;;;16.90;1.00;;;;;;5067288;28;20036;-69
2021/10/03 03:06:37;;;;;;;4.15;3.38;;;16.80;1.00;;;;;;5067704;28;20052;-70
2021/10/03 03:09:05;;;;;;;5.15;3.80;;;16.80;1.00;;;;;;5075658;28;20106;-69
2021/10/03 03:11:34;;;;;;;5.57;3.83;;;16.80;1.00;;;;;;5075718;28;20052;-69
2021/10/03 03:14:02;;;;;;;5.90;4.10;;;16.80;1.00;;;;;;5071371;28;20556;-69
2021/10/03 03:16:31;;;;;;;6.00;4.03;;;16.80;1.00;;;;;;5075566;28;20484;-69
2021/10/03 03:18:59;;;;;;;6.97;4.18;;;16.80;1.00;;;;;;5074536;28;20045;-70
2021/10/03 03:21:27;;;;;;;5.50;4.13;;;16.80;1.00;;;;;;5075345;28;20140;-70
2021/10/03 03:23:56;;;;;;;7.57;4.25;;;16.70;1.00;;;;;;5069059;28;20090;-70
2021/10/03 03:26:27;;;;;;;5.90;4.05;;;16.70;1.00;;;;;;5073669;28;20046;-69
2021/10/03 03:28:57;;;;;;;6.40;3.92;;;16.70;1.00;;;;;;5074340;28;20538;-69
2021/10/03 03:31:27;;;;;;;5.72;3.90;;;16.70;1.00;;;;;;5074022;28;20040;-69
2021/10/03 03:33:59;;;;;;;7.10;5.32;;;16.60;1.00;;;;;;5071256;28;20622;-70
2021/10/03 03:36:29;;;;;;;8.25;5.20;;;16.60;1.00;;;;;;5070787;28;20185;-70
2021/10/03 03:39:00;;;;;;;5.40;4.82;;;16.60;1.00;;;;;;5073716;28;20098;-70
2021/10/03 03:41:33;;;;;;;6.30;4.43;;;16.50;1.00;;;;;;5077359;28;20051;-70
2021/10/03 03:44:06;;;;;;;4.63;3.80;;;16.60;1.00;;;;;;5072420;28;20123;-70
2021/10/03 03:46:34;;;;;;;4.95;4.05;;;16.60;1.00;;;;;;5071739;28;20494;-70
2021/10/03 03:49:05;;;;;;;4.78;3.63;;;16.50;1.00;;;;;;5072886;28;20043;-69
2021/10/03 03:51:33;;;;;;;4.35;3.60;;;16.50;1.00;;;;;;5073987;28;20044;-68
2021/10/03 03:54:06;;;;;;;5.30;4.15;;;16.50;1.00;;;;;;5069705;28;20036;-70
2021/10/03 03:56:38;;;;;;;7.97;5.50;;;16.60;1.00;;;;;;5071975;28;20047;-69
2021/10/03 03:59:07;;;;;;;6.53;4.57;;;16.50;1.00;;;;;;5071913;28;20423;-70
2021/10/03 04:01:36;;;;;;;5.40;4.35;;;16.50;1.00;;;;;;5074422;28;20120;-70
2021/10/03 04:04:04;;;;;;;6.80;4.03;;;16.50;1.00;;;;;;5070797;28;20028;-69
2021/10/03 04:06:32;;;;;;;4.50;3.78;;;16.50;1.00;;;;;;5071656;28;20552;-70
2021/10/03 04:09:00;;;;;;;7.38;4.05;;;16.50;1.00;;;;;;5072971;28;20123;-69
2021/10/03 04:11:30;;;;;;;5.88;3.83;;;16.40;1.00;;;;;;5075450;28;20089;-70
2021/10/03 04:13:58;;;;;;;5.88;3.83;;;16.40;1.00;;;;;;5069835;28;20106;-69
2021/10/03 04:16:28;;;;;;;5.03;3.97;;;16.40;1.00;;;;;;5074258;28;20128;-69
2021/10/03 04:18:59;;;;;;;4.57;3.65;;;16.40;1.00;;;;;;5078454;28;20040;-70
2021/10/03 04:21:27;;;;;;;5.50;3.97;;;16.30;1.00;;;;;;5082476;28;20164;-70
2021/10/03 04:23:56;;;;;;;4.25;3.65;;;16.30;1.00;;;;;;5075159;28;20115;-69
2021/10/03 04:26:25;;;;;;;6.05;3.65;;;16.20;1.00;;;;;;5076091;28;20127;-71
2021/10/03 04:28:55;;;;;;;6.30;3.80;;;16.10;1.00;;;;;;5076211;28;20050;-70
2021/10/03 04:31:24;;;;;;;6.20;4.18;;;16.20;1.00;;;;;;5076440;28;20044;-69
2021/10/03 04:33:57;;;;;;;6.78;3.83;;;16.30;1.00;;;;;;5076384;28;20052;-72
2021/10/03 04:36:25;;;;;;;4.18;3.53;;;16.40;1.00;;;;;;5073002;28;20086;-69
2021/10/03 04:38:56;;;;;;;4.95;3.40;;;16.40;1.00;;;;;;5081285;28;20130;-69
2021/10/03 04:41:24;;;;;;;4.32;3.45;;;16.40;1.00;;;;;;5082212;28;20044;-70
2021/10/03 04:43:56;;;;;;;4.75;3.50;;;16.40;1.00;;;;;;5074488;28;20818;-69
2021/10/03 04:46:25;;;;;;;4.20;3.40;;;16.40;1.00;;;;;;5078964;28;20101;-70
2021/10/03 04:48:59;;;;;;;4.40;3.72;;;16.40;1.00;;;;;;5080314;28;20041;-70
2021/10/03 04:51:29;;;;;;;5.32;3.75;;;16.40;1.00;;;;;;5079241;28;20044;-70
2021/10/03 04:53:57;;;;;;;4.30;3.50;;;16.40;1.00;;;;;;5057559;28;20458;-70
2021/10/03 04:56:29;;;;;;;6.55;3.90;;;16.40;1.00;;;;;;5074202;28;20049;-70
2021/10/03 04:58:57;;;;;;;7.88;4.40;;;16.40;1.00;;;;;;5075742;28;20056;-70
2021/10/03 05:01:31;;;;;;;6.18;3.78;;;16.40;1.00;;;;;;5083009;28;20080;-69
2021/10/03 05:04:01;;;;;;;5.60;3.40;;;16.40;1.00;;;;;;5074373;28;20044;-69
2021/10/03 05:06:31;;;;;;;6.60;3.30;;;16.40;1.00;;;;;;5071656;28;20132;-69
2021/10/03 05:09:03;;;;;;;4.05;3.28;;;16.40;1.00;;;;;;5077301;28;20036;-70
2021/10/03 05:11:35;;;;;;;5.53;3.63;;;16.40;1.00;;;;;;5074244;28;20048;-70
2021/10/03 05:14:06;;;;;;;4.97;3.10;;;16.40;1.00;;;;;;5070994;28;20051;-70
2021/10/03 05:16:35;;;;;;;5.18;3.20;;;16.40;1.00;;;;;;5073307;28;20032;-70
2021/10/03 05:19:10;;;;;;;4.38;3.38;;;16.40;1.00;;;;;;5084006;28;20127;-69
2021/10/03 05:21:38;;;;;;;6.60;3.92;;;16.40;1.00;;;;;;5072531;28;20492;-70
2021/10/03 05:24:07;;;;;;;4.75;3.53;;;16.40;1.00;;;;;;5069420;28;20054;-70
2021/10/03 05:26:36;;;;;;;6.22;3.50;;;16.40;1.00;;;;;;5075968;28;20048;-69
2021/10/03 05:29:04;;;;;;;5.63;3.53;;;16.40;1.00;;;;;;5074704;28;20051;-69
2021/10/03 05:31:33;;;;;;;5.07;3.22;;;16.40;1.00;;;;;;5076055;28;20442;-70
2021/10/03 05:34:01;;;;;;;5.55;3.65;;;16.40;1.00;;;;;;5075028;28;20282;-69
2021/10/03 05:36:34;;;;;;;6.40;3.15;;;16.40;1.00;;;;;;5070324;28;20040;-70
2021/10/03 05:39:02;;;;;;;6.90;3.60;;;16.50;1.00;;;;;;5075339;28;20040;-69
2021/10/03 05:41:31;;;;;;;5.82;3.10;;;16.50;1.00;;;;;;5051237;28;20073;-70
2021/10/03 05:43:59;;;;;;;4.30;3.10;;;16.50;1.00;;;;;;5054167;28;20052;-70
2021/10/03 05:46:27;;;;;;;4.43;3.33;;;16.50;1.00;;;;;;5049619;28;20057;-69
2021/10/03 05:48:59;;;;;;;4.55;3.25;;;16.50;1.00;;;;;;5063109;28;20050;-70
2021/10/03 05:51:31;;;;;;;3.10;2.80;;;16.50;1.00;;;;;;5057099;28;20389;-70
2021/10/03 05:54:05;;;;;;;3.67;3.17;;;16.50;1.00;;;;;;5070920;28;20040;-70
2021/10/03 05:56:35;;;;;;;5.53;3.00;;;16.50;1.00;;;;;;5074062;28;20621;-70
2021/10/03 05:59:03;;;;;;;4.63;3.45;;;16.50;1.00;;;;;;5071994;28;20040;-70
2021/10/03 06:01:31;;;;;;;5.90;3.28;;;16.60;1.00;;;;;;5078288;28;20094;-69
2021/10/03 06:04:03;;;;;;;6.50;3.20;;;16.50;1.00;;;;;;5072992;28;20537;-69
2021/10/03 06:06:31;;;;;;;6.75;3.47;;;16.70;1.00;;;;;;5070053;28;20078;-69
2021/10/03 06:09:00;;;;;;;3.58;3.05;;;16.70;1.00;;;;;;5073374;28;20603;-69
2021/10/03 06:11:30;;;;;;;7.63;3.10;;;16.70;1.00;;;;;;5079907;28;20536;-70
2021/10/03 06:13:58;;;;;;;4.22;3.35;;;16.70;1.00;;;;;;5070894;28;20507;-70
2021/10/03 06:16:27;;;;;;;3.45;2.95;;;16.70;1.00;;;;;;5065500;28;20159;-70
2021/10/03 06:19:00;;;;;;;4.45;2.90;;;16.70;1.00;;;;;;5075340;28;20160;-70
2021/10/03 06:21:28;;;;;;;4.10;2.88;;;16.70;1.00;;;;;;5079948;28;20045;-70
2021/10/03 06:23:56;;;;;;;4.88;2.70;;;16.80;1.00;;;;;;5073156;28;20047;-70
2021/10/03 06:26:24;;;;;;;9.80;3.30;;;16.90;1.00;;;;;;5072949;28;20753;-70
2021/10/03 06:28:53;;;;;;;3.95;2.63;;;16.90;1.00;;;;;;5074332;28;20048;-70
2021/10/03 06:31:21;;;;;;;5.90;3.15;;;17.00;1.00;;;;;;5082193;28;20127;-70
2021/10/03 06:33:55;;;;;;;4.40;2.63;;;17.00;1.00;;;;;;5071430;28;20040;-70
2021/10/03 06:36:23;;;;;;;3.38;2.60;;;17.10;1.00;;;;;;5061228;28;20093;-70
2021/10/03 06:38:51;;;;;;;3.88;2.83;;;17.10;1.00;;;;;;5074956;28;20074;-70
2021/10/03 06:41:19;;;;;;;4.68;2.63;;;17.10;1.00;;;;;;5071148;28;20068;-70
2021/10/03 06:43:47;;;;;;;4.75;3.17;;;17.20;1.00;;;;;;5069995;28;20048;-70
2021/10/03 06:46:20;;;;;;;6.47;2.83;;;17.20;1.00;;;;;;5077857;28;20048;-69
2021/10/03 06:48:48;;;;;;;3.90;3.10;;;17.20;1.00;;;;;;5077492;28;20133;-70
2021/10/03 06:51:19;;;;;;;6.78;3.72;;;17.30;1.00;;;;;;5056772;28;20057;-69
2021/10/03 06:53:51;;;;;;;3.08;2.75;;;17.50;1.00;;;;;;5048253;28;20055;-69
2021/10/03 06:56:19;;;;;;;3.03;2.65;;;17.50;1.00;;;;;;5050984;28;20135;-71
2021/10/03 06:58:47;;;;;;;4.88;2.63;;;17.60;1.00;;;;;;5055397;28;20052;-68
2021/10/03 07:01:17;;;;;;;5.00;3.13;;;17.60;1.00;;;;;;5053631;28;20040;-69
2021/10/03 07:03:51;;;;;;;7.05;3.45;;;17.80;1.00;;;;;;5055102;28;20045;-70
2021/10/03 07:06:21;;;;;;;3.65;3.03;;;17.80;1.00;;;;;;5051944;28;20044;-70
2021/10/03 07:08:49;;;;;;;3.75;3.00;;;17.90;1.00;;;;;;5053418;28;20139;-69
2021/10/03 07:11:17;;;;;;;4.38;2.83;;;17.90;1.00;;;;;;5057675;28;20567;-69
2021/10/03 07:13:44;;;;;;;5.63;2.80;;;17.80;1.00;;;;;;5049296;28;20045;-69
2021/10/03 07:16:15;;;;;;;5.78;2.65;;;17.80;1.00;;;;;;5050931;28;20045;-70
2021/10/03 07:18:46;;;;;;;4.05;2.92;;;17.90;1.00;;;;;;5055844;28;20048;-69
2021/10/03 07:21:15;;;;;;;4.90;3.03;;;17.90;1.00;;;;;;5057056;28;20059;-69
2021/10/03 07:23:49;;;;;;;4.63;2.80;;;17.90;1.00;;;;;;5046273;28;20060;-70
2021/10/03 07:26:20;;;;;;;5.00;3.03;;;17.90;1.00;;;;;;5053528;28;20106;-70
2021/10/03 07:28:48;;;;;;;4.55;3.00;;;18.00;1.00;;;;;;5054007;28;20033;-70
2021/10/03 07:31:22;;;;;;;3.70;2.90;;;18.00;1.00;;;;;;5053219;28;20041;-71
2021/10/03 07:33:52;;;;;;;7.03;3.00;;;18.00;1.00;;;;;;5055562;28;20041;-69
2021/10/03 07:36:21;;;;;;;3.53;2.92;;;18.00;1.00;;;;;;5042850;28;20121;-69
2021/10/03 07:38:49;;;;;;;5.75;2.90;;;18.00;1.00;;;;;;5052232;28;20078;-69
2021/10/03 07:41:19;;;;;;;4.65;2.90;;;18.00;1.00;;;;;;5060648;28;20087;-70
2021/10/03 07:43:49;;;;;;;7.05;2.78;;;18.00;1.00;;;;;;5051367;28;20211;-70
2021/10/03 07:46:23;;;;;;;4.35;3.15;;;17.90;1.00;;;;;;5050080;28;20052;-70
2021/10/03 07:48:52;;;;;;;4.32;2.90;;;18.00;1.00;;;;;;5052640;28;20045;-70
2021/10/03 07:51:25;;;;;;;4.57;3.10;;;18.00;1.00;;;;;;5071949;28;20072;-69
2021/10/03 07:53:54;;;;;;;5.40;3.28;;;18.00;1.00;;;;;;5050237;28;20052;-69
2021/10/03 07:56:22;;;;;;;4.65;3.00;;;18.10;1.00;;;;;;5049041;28;20069;-70
2021/10/03 07:58:50;;;;;;;3.92;2.92;;;18.00;1.00;;;;;;5054771;28;20068;-69
2021/10/03 08:01:22;;;;;;;4.80;2.40;;;18.10;1.00;;;;;;5053304;28;20040;-69
2021/10/03 08:03:52;;;;;;;3.85;2.65;;;18.20;1.00;;;;;;5049127;28;20428;-70
2021/10/03 08:06:20;;;;;;;5.63;2.67;;;18.30;1.00;;;;;;5047530;28;20052;-70
2021/10/03 08:08:49;;;;;;;4.40;2.67;;;18.30;1.00;;;;;;5053818;28;20037;-70
2021/10/03 08:11:17;;;;;;;4.18;2.72;;;18.30;1.00;;;;;;5055386;28;20445;-70
2021/10/03 08:13:50;;;;;;;5.53;2.63;;;18.30;1.00;;;;;;5050063;28;20079;-70
2021/10/03 08:16:18;;;;;;;3.65;2.90;;;18.30;1.00;;;;;;5054717;28;20044;-71
2021/10/03 08:18:51;;;;;;;3.67;2.78;;;18.30;1.00;;;;;;5054865;28;21460;-70
2021/10/03 08:21:19;;;;;;;7.15;3.25;;;18.30;1.00;;;;;;5052018;28;20071;-70
2021/10/03 08:23:48;;;;;;;6.50;2.80;;;18.20;1.00;;;;;;5047426;28;20385;-70
2021/10/03 08:26:16;;;;;;;3.95;2.85;;;18.30;1.00;;;;;;5054246;28;20079;-71
2021/10/03 08:28:46;;;;;;;5.25;2.80;;;18.30;1.00;;;;;;5051349;28;21045;-70
2021/10/03 08:31:21;;;;;;;;;;;18.30;1.00;;;;;;5057738;28;20110;-70
2021/10/03 08:33:49;;;;;;;4.82;3.15;;;18.20;1.00;;;;;;5050198;28;19930;-69
2021/10/03 08:36:17;;;;;;;3.53;2.75;;;18.20;1.00;;;;;;5048440;28;20053;-69
2021/10/03 08:38:52;;;;;;;3.70;2.63;;;18.20;1.00;;;;;;5050662;28;20041;-70
2021/10/03 08:41:21;;;;;;;4.20;2.53;;;18.30;1.00;;;;;;5050665;28;20052;-70
2021/10/03 08:43:53;;;;;;;3.17;2.60;;;18.40;1.00;;;;;;5050508;28;20109;-70
2021/10/03 08:46:24;;;;;;;5.10;2.97;;;18.40;1.00;;;;;;5049317;28;20048;-70
2021/10/03 08:48:56;;;;;;;4.35;2.75;;;18.40;1.00;;;;;;5059873;28;20041;-73
2021/10/03 08:51:25;;;;;;;4.63;2.70;;;18.40;1.00;;;;;;5052345;28;20045;-69
2021/10/03 08:54:00;;;;;;;5.15;2.75;;;18.40;1.00;;;;;;5050533;28;20041;-69
2021/10/03 08:56:29;;;;;;;5.95;2.70;;;18.40;1.00;;;;;;5054808;28;20045;-69
2021/10/03 08:58:57;;;;;;;3.65;2.72;;;18.50;1.00;;;;;;5053653;28;20131;-69
2021/10/03 09:01:48;;;;;;;5.15;2.90;;;18.50;1.00;;;;;;5059924;28;20102;-69
2021/10/03 09:04:31;;;;;;;3.63;2.60;;;18.50;1.00;;;;;;5051705;28;20098;-69
2021/10/03 09:07:08;;;;;;;3.10;2.55;;;18.50;1.00;;;;;;5055506;28;20449;-70
2021/10/03 09:09:50;;;;;;;3.58;2.47;;;18.60;1.00;;;;;;5058677;28;20487;-69
2021/10/03 09:12:30;;;;;;;5.78;2.90;;;18.60;1.00;;;;;;5056179;28;20071;-70
2021/10/03 09:15:04;;;;;;;5.22;2.90;;;18.50;1.00;;;;;;5052223;28;20048;-69
2021/10/03 09:17:33;;;;;;;4.13;2.67;;;18.50;1.00;;;;;;5053942;28;20040;-69
2021/10/03 09:20:16;;;;;;;7.72;3.13;;;18.50;1.00;;;;;;5056278;28;20159;-69
2021/10/03 09:22:59;;;;;;;3.28;2.70;;;18.60;1.00;;;;;;5051216;28;20128;-69
2021/10/03 09:25:40;;;;;;;4.90;3.50;;;18.60;1.00;;;;;;5051761;28;20053;-68
2021/10/03 09:28:10;;;;;;;4.90;3.60;;;18.60;1.00;;;;;;5050582;28;20075;-70
2021/10/03 09:30:59;;;;;;;4.85;3.45;;;18.60;1.00;;;;;;5059350;28;20049;-70
2021/10/03 09:33:47;;;;;;;5.57;3.40;;;18.60;1.00;;;;;;5055685;28;20037;-69
2021/10/03 09:36:24;;;;;;;5.22;3.05;;;18.60;1.00;;;;;;5054135;28;20071;-69
2021/10/03 09:38:57;;;;;;;4.15;2.97;;;18.60;1.00;;;;;;5069014;28;20044;-68
2021/10/03 09:41:32;;;;;;;4.63;2.80;;;18.70;1.00;;;;;;5060942;28;20102;-69
2021/10/03 09:44:08;;;;;;;3.67;2.83;;;18.70;1.00;;;;;;5055921;28;20064;-69
2021/10/03 09:46:40;;;;;;;3.83;2.85;;;18.70;1.00;;;;;;5060945;28;20571;-69
2021/10/03 09:49:14;;;;;;;3.65;2.83;;;18.70;1.00;;;;;;5051826;28;20467;-69
2021/10/03 09:51:45;;;;;;;5.03;2.63;;;18.80;1.00;;;;;;5051904;28;20040;-68
2021/10/03 09:54:17;;;;;;;4.90;3.05;;;18.90;1.00;;;;;;5046289;28;20575;-69
2021/10/03 09:56:54;;;;;;;4.68;2.78;;;18.90;1.00;;;;;;5050272;28;20492;-69
2021/10/03 09:59:26;;;;;;;3.92;2.88;;;18.90;1.00;;;;;;5050843;28;20131;-70
2021/10/03 10:01:54;;;;;;;3.88;2.65;;;18.90;1.00;;;;;;5050913;28;20048;-70
2021/10/03 10:04:27;;;;;;;3.92;2.90;;;19.00;1.00;;;;;;5049666;28;20047;-69
2021/10/03 10:06:58;;;;;;;5.60;3.15;;;19.00;1.00;;;;;;5030465;28;20057;-70
2021/10/03 10:09:29;;;;;;;5.25;3.13;;;19.00;1.00;;;;;;5052261;28;20052;-70
2021/10/03 10:12:02;;;;;;;4.57;2.83;;;19.00;1.00;;;;;;5047426;28;20059;-69
2021/10/03 10:14:33;;;;;;;3.28;2.42;;;19.00;1.00;;;;;;5048087;28;20049;-69
2021/10/03 10:17:31;;;;;;;2.65;2.28;;;19.10;1.00;;;;;;5048941;28;20045;-69
2021/10/03 10:20:00;;;;;;;4.60;2.83;;;19.10;1.00;;;;;;5042381;28;20448;-70
2021/10/03 10:22:38;;;;;;;3.25;2.65;;;19.10;1.00;;;;;;5046885;28;20064;-70
2021/10/03 10:25:18;;;;;;;4.40;2.85;;;19.20;1.00;;;;;;5036354;28;20049;-69
2021/10/03 10:28:08;;;;;;;5.07;3.22;;;19.30;1.00;;;;;;5050009;28;20048;-70
2021/10/03 10:31:03;;;;;;;5.57;3.70;;;19.40;1.00;;;;;;5068929;28;20140;-69
2021/10/03 10:34:06;;;;;;;5.35;3.90;;;19.40;1.00;;;;;;5069828;28;20564;-69
2021/10/03 10:36:54;;;;;;;6.47;3.72;;;19.50;1.00;;;;;;5067629;28;20044;-70
2021/10/03 10:39:27;;;;;;;5.53;4.18;;;19.40;1.00;;;;;;5067222;28;20044;-70
2021/10/03 10:42:02;;;;;;;5.10;3.70;;;19.40;1.00;;;;;;5067968;28;20567;-68
2021/10/03 10:44:41;;;;;;;5.13;3.38;;;19.50;1.00;;;;;;5066713;28;20074;-70
2021/10/03 10:47:17;;;;;;;5.53;3.50;;;19.40;1.00;;;;;;5066481;28;20127;-69
2021/10/03 10:49:48;;;;;;;5.70;3.15;;;19.50;1.00;;;;;;5069424;28;20211;-69
2021/10/03 10:52:36;;;;;;;4.18;2.97;;;19.60;1.00;;;;;;5070620;28;20053;-68
2021/10/03 10:55:24;;;;;;;5.30;2.78;;;19.70;1.00;;;;;;5069535;28;20565;-68
2021/10/03 10:58:15;;;;;;;5.22;3.20;;;19.80;1.00;;;;;;5065161;28;20051;-70
2021/10/03 11:00:58;;;;;;;4.97;3.17;;;19.90;1.00;;;;;;5071554;28;20044;-68
2021/10/03 11:04:02;;;;;;;3.47;2.45;;;19.90;1.00;;;;;;5025182;28;20045;-69
2021/10/03 11:07:05;;;;;;;5.28;3.35;;;19.90;1.00;;;;;;5053403;28;20371;-70
2021/10/03 11:10:01;;;;;;;3.90;2.83;;;20.10;1.00;;;;;;5047342;28;20136;-70
2021/10/03 11:12:34;;;;;;;7.07;3.17;;;20.00;1.00;;;;;;5044966;28;20044;-70
2021/10/03 11:15:23;;;;;;;7.10;3.20;;;20.00;1.00;;;;;;5047521;28;20055;-69
2021/10/03 11:17:53;;;;;;;3.60;3.20;;;20.10;1.00;;;;;;5048310;28;20056;-69
2021/10/03 11:20:25;;;;;;;7.07;3.03;;;20.10;1.00;;;;;;5047804;28;20390;-70
2021/10/03 11:22:54;;;;;;;4.10;3.03;;;20.10;1.00;;;;;;5047070;28;20561;-70
2021/10/03 11:25:28;;;;;;;4.00;2.90;;;19.90;1.00;;;;;;5052405;28;20586;-70
2021/10/03 11:28:03;;;;;;;4.63;3.22;;;20.00;1.00;;;;;;5046761;28;20450;-70
2021/10/03 11:30:31;;;;;;;4.55;2.97;;;20.00;1.00;;;;;;5049460;28;20049;-69
2021/10/03 11:33:10;;;;;;;6.85;2.95;;;19.90;1.00;;;;;;5048530;28;20515;-69
2021/10/03 11:35:39;;;;;;;4.50;2.88;;;20.00;1.00;;;;;;5047806;28;20037;-68
2021/10/03 11:38:10;;;;;;;6.95;4.55;;;20.10;1.00;;;;;;5044493;28;20067;-69
2021/10/03 11:40:43;;;;;;;4.70;2.95;;;20.10;1.00;;;;;;5046272;28;20045;-69
2021/10/03 11:43:11;;;;;;;6.50;2.85;;;20.10;1.00;;;;;;5043718;28;20052;-68
2021/10/03 11:45:40;;;;;;;4.68;2.83;;;20.10;1.00;;;;;;5043478;28;20072;-69
2021/10/03 11:48:10;;;;;;;6.75;4.05;;;20.00;1.00;;;;;;5051123;28;20053;-69
2021/10/03 11:50:45;;;;;;;4.22;3.33;;;20.10;1.00;;;;;;5030567;28;20575;-69
2021/10/03 11:53:18;;;;;;;4.93;2.85;;;20.10;1.00;;;;;;5049864;28;20353;-69
2021/10/03 11:55:50;;;;;;;7.90;3.03;;;20.10;1.00;;;;;;5050576;28;20052;-70
2021/10/03 11:58:22;;;;;;;5.15;2.75;;;20.10;1.00;;;;;;5045290;28;20049;-69
2021/10/03 12:00:54;;;;;;;6.30;3.60;;;20.00;1.00;;;;;;5049470;28;20048;-70
2021/10/03 12:03:30;;;;;;;5.82;2.92;;;20.10;1.00;;;;;;5042376;28;20103;-70
2021/10/03 12:06:01;;;;;;;3.92;2.90;;;20.10;1.00;;;;;;5042571;28;20155;-69
2021/10/03 12:08:38;;;;;;;4.85;2.88;;;20.20;1.00;;;;;;5046011;28;20052;-70
2021/10/03 12:11:07;;;;;;;4.25;3.10;;;20.30;1.00;;;;;;5047001;28;20711;-68
2021/10/03 12:13:37;;;;;;;5.45;3.40;;;20.30;1.00;;;;;;5043829;28;20041;-68
2021/10/03 12:16:17;;;;;;;5.68;3.75;;;20.40;1.00;;;;;;5044215;28;20067;-70
2021/10/03 12:18:53;;;;;;;5.60;4.63;;;20.40;1.00;;;;;;5026689;28;20284;-69
2021/10/03 12:21:28;;;;;;;4.82;4.03;;;20.50;1.00;;;;;;5031530;28;20137;-70
2021/10/03 12:24:07;;;;;;;5.50;3.70;;;20.60;1.00;;;;;;5042485;28;20528;-69
2021/10/03 12:26:41;;;;;;;4.93;3.03;;;20.60;1.00;;;;;;5047829;28;20450;-67
2021/10/03 12:29:24;;;;;;;3.67;3.28;;;20.70;1.00;;;;;;5045633;28;20092;-68
2021/10/03 12:32:10;;;;;;;4.57;3.08;;;20.70;1.00;;;;;;5045090;28;20380;-69
2021/10/03 12:34:49;;;;;;;3.80;2.92;;;20.60;1.00;;;;;;5046143;28;20119;-68
2021/10/03 12:37:36;;;;;;;4.32;3.00;;;20.70;1.00;;;;;;5049435;28;20059;-69
2021/10/03 12:40:10;;;;;;;5.47;3.08;;;20.70;1.00;;;;;;5030640;28;20197;-69
2021/10/03 12:42:42;;;;;;;3.45;2.90;;;20.70;1.00;;;;;;5036230;28;20045;-69
2021/10/03 12:45:11;;;;;;;4.40;3.13;;;20.70;1.00;;;;;;5067281;28;20052;-69
2021/10/03 12:47:43;;;;;;;6.00;2.97;;;20.80;1.00;;;;;;5033187;28;20044;-69
2021/10/03 12:50:14;;;;;;;4.85;2.88;;;20.70;1.00;;;;;;5034042;28;20033;-68
2021/10/03 12:52:45;;;;;;;6.65;2.95;;;20.70;1.00;;;;;;5032815;28;20131;-69
2021/10/03 12:55:17;;;;;;;5.47;3.05;;;20.60;1.00;;;;;;5069329;28;20144;-69
2021/10/03 12:57:50;;;;;;;5.07;3.08;;;20.70;1.00;;;;;;5053332;28;20063;-68
2021/10/03 13:00:22;;;;;;;7.57;3.20;;;20.70;1.00;;;;;;5070543;28;20149;-69
2021/10/03 13:02:55;;;;;;;4.80;3.30;;;20.70;1.00;;;;;;5066251;28;20649;-69
2021/10/03 13:05:27;;;;;;;4.07;3.28;;;20.80;1.00;;;;;;5069076;28;20430;-68
2021/10/03 13:07:56;;;;;;;5.03;3.03;;;20.80;1.00;;;;;;5066451;28;20079;-70
2021/10/03 13:10:24;;;;;;;7.88;3.10;;;20.80;1.00;;;;;;5068473;28;20620;-69
2021/10/03 13:12:52;;;;;;;7.00;3.75;;;20.80;1.00;;;;;;5064536;28;20048;-69
2021/10/03 13:15:21;;;;;;;6.18;4.10;;;20.70;1.00;;;;;;5059972;28;20107;-69
2021/10/03 13:17:49;;;;;;;7.47;3.88;;;20.60;1.00;;;;;;5051321;28;20537;-69
2021/10/03 13:20:19;;;;;;;5.70;4.18;;;20.60;1.00;;;;;;5052642;28;20541;-69
2021/10/03 13:22:49;;;;;;;6.88;4.30;;;20.60;1.00;;;;;;5051822;28;20040;-69